createdAt,value
2018-09-20T00:01:35.136Z,8.80
2018-09-20T00:04:05.635Z,8.37
2018-09-20T00:06:36.057Z,10.33
2018-09-20T00:09:07.836Z,11.20
2018-09-20T00:11:38.597Z,7.80
2018-09-20T00:14:08.916Z,8.00
2018-09-20T00:16:39.700Z,8.20
2018-09-20T00:19:10.256Z,7.40
2018-09-20T00:21:40.804Z,6.87
2018-09-20T00:24:11.408Z,6.83
2018-09-20T00:26:42.023Z,6.97
2018-09-20T00:29:12.728Z,5.87
2018-09-20T00:31:43.749Z,6.10
2018-09-20T00:34:14.345Z,6.30
2018-09-20T00:36:48.069Z,5.70
2018-09-20T00:39:18.517Z,5.57
2018-09-20T00:41:49.438Z,5.60
2018-09-20T00:44:19.698Z,5.60
2018-09-20T00:46:50.184Z,5.43
2018-09-20T00:49:21.364Z,6.00
2018-09-20T00:51:51.604Z,10.27
2018-09-20T00:54:22.259Z,9.73
2018-09-20T00:56:52.776Z,8.27
2018-09-20T00:59:23.498Z,12.57
2018-09-20T01:01:54.112Z,9.97
2018-09-20T01:04:24.624Z,9.90
2018-09-20T01:06:55.156Z,7.80
2018-09-20T01:09:25.705Z,7.53
2018-09-20T01:11:56.355Z,8.00
2018-09-20T01:14:26.864Z,10.60
2018-09-20T01:16:57.142Z,9.70
2018-09-20T01:19:27.836Z,8.00
2018-09-20T01:21:58.651Z,7.90
2018-09-20T01:24:29.449Z,8.93
2018-09-20T01:27:00.948Z,9.07
2018-09-20T01:29:32.324Z,9.07
2018-09-20T01:32:02.927Z,7.70
2018-09-20T01:34:33.464Z,7.00
2018-09-20T01:37:03.756Z,7.67
2018-09-20T01:39:34.332Z,7.07
2018-09-20T01:42:04.887Z,7.40
2018-09-20T01:44:35.401Z,7.97
2018-09-20T01:47:06.152Z,8.03
2018-09-20T01:49:36.976Z,8.43
2018-09-20T01:52:10.779Z,7.87
2018-09-20T01:54:41.397Z,6.83
2018-09-20T01:57:11.979Z,6.53
2018-09-20T01:59:42.265Z,7.10
2018-09-20T02:02:12.772Z,7.80
2018-09-20T02:04:43.036Z,6.80
2018-09-20T02:07:13.543Z,7.00
2018-09-20T02:09:44.233Z,7.17
2018-09-20T02:12:16.033Z,7.50
2018-09-20T02:14:46.749Z,9.63
2018-09-20T02:17:17.395Z,7.50
2018-09-20T02:19:48.224Z,7.60
2018-09-20T02:22:18.734Z,7.20
2018-09-20T02:24:49.529Z,6.90
2018-09-20T02:27:20.038Z,7.43
2018-09-20T02:29:50.547Z,6.70
2018-09-20T02:32:21.226Z,7.47
2018-09-20T02:34:52.037Z,7.37
2018-09-20T02:37:22.501Z,7.77
2018-09-20T02:39:53.156Z,7.10
2018-09-20T02:42:23.888Z,6.47
2018-09-20T02:44:54.451Z,6.73
2018-09-20T02:47:24.967Z,6.30
2018-09-20T02:49:55.501Z,6.40
2018-09-20T02:52:26.319Z,6.43
2018-09-20T02:54:56.631Z,6.47
2018-09-20T02:57:27.380Z,6.07
2018-09-20T02:59:58.288Z,6.40
2018-09-20T03:02:28.820Z,6.43
2018-09-20T03:04:59.496Z,6.10
2018-09-20T03:07:29.847Z,5.80
2018-09-20T03:10:00.341Z,5.73
2018-09-20T03:12:30.916Z,6.00
2018-09-20T03:15:01.440Z,6.20
2018-09-20T03:17:33.722Z,7.10
2018-09-20T03:22:40.956Z,7.57
2018-09-20T03:25:11.529Z,7.40
2018-09-20T03:27:42.217Z,7.00
2018-09-20T03:30:13.195Z,8.30
2018-09-20T03:32:44.209Z,7.17
2018-09-20T03:35:15.028Z,8.10
2018-09-20T03:37:45.756Z,8.60
2018-09-20T03:40:16.489Z,7.63
2018-09-20T03:42:47.005Z,8.00
2018-09-20T03:45:17.673Z,7.40
2018-09-20T03:47:48.460Z,8.60
2018-09-20T03:50:18.936Z,8.83
2018-09-20T03:52:49.548Z,9.53
2018-09-20T03:55:20.784Z,8.13
2018-09-20T03:57:51.321Z,9.50
2018-09-20T04:00:21.563Z,8.97
2018-09-20T04:02:52.062Z,7.70
2018-09-20T04:05:22.268Z,8.33
2018-09-20T04:07:53.404Z,8.23
2018-09-20T04:10:24.892Z,8.90
2018-09-20T04:12:55.171Z,7.27
2018-09-20T04:15:25.704Z,7.80
2018-09-20T04:17:56.955Z,7.50
2018-09-20T04:20:27.884Z,7.77
2018-09-20T04:22:59.240Z,8.60
2018-09-20T04:25:29.840Z,8.37
2018-09-20T04:28:00.375Z,9.17
2018-09-20T04:30:30.786Z,8.93
2018-09-20T04:33:01.223Z,8.17
2018-09-20T04:35:31.888Z,10.50
2018-09-20T04:38:02.423Z,9.10
2018-09-20T04:40:32.995Z,9.03
2018-09-20T04:43:04.069Z,10.60
2018-09-20T04:45:34.811Z,9.77
2018-09-20T04:48:05.511Z,9.33
2018-09-20T04:50:36.911Z,8.53
2018-09-20T04:53:07.441Z,8.20
2018-09-20T04:55:38.025Z,8.83
2018-09-20T04:58:08.287Z,9.13
2018-09-20T05:00:38.687Z,8.43
2018-09-20T05:03:09.195Z,8.60
2018-09-20T05:05:39.655Z,8.60
2018-09-20T05:08:10.381Z,8.87
2018-09-20T05:10:40.892Z,8.60
2018-09-20T05:13:11.679Z,8.73
2018-09-20T05:15:42.188Z,9.17
2018-09-20T05:18:12.781Z,8.10
2018-09-20T05:20:43.441Z,9.00
2018-09-20T05:23:14.724Z,9.40
2018-09-20T05:25:45.248Z,8.10
2018-09-20T05:28:15.735Z,8.50
2018-09-20T05:30:46.042Z,8.57
2018-09-20T05:33:16.853Z,8.50
2018-09-20T05:35:47.761Z,8.97
2018-09-20T05:38:18.257Z,10.67
2018-09-20T05:40:48.820Z,9.77
2018-09-20T05:43:19.398Z,8.53
2018-09-20T05:45:49.948Z,8.20
2018-09-20T05:48:20.727Z,9.00
2018-09-20T05:50:51.260Z,8.17
2018-09-20T05:53:21.907Z,7.83
2018-09-20T05:55:52.531Z,9.27
2018-09-20T05:58:23.095Z,9.40
2018-09-20T06:00:53.664Z,8.90
2018-09-20T06:03:24.431Z,6.50
2018-09-20T06:05:55.137Z,6.87
2018-09-20T06:08:26.106Z,6.70
2018-09-20T06:10:56.660Z,7.60
2018-09-20T06:13:27.179Z,7.83
2018-09-20T06:15:58.144Z,7.57
2018-09-20T06:18:31.624Z,7.80
2018-09-20T06:21:02.449Z,6.97
2018-09-20T06:23:32.987Z,6.30
2018-09-20T06:26:03.554Z,7.60
2018-09-20T06:28:33.992Z,8.63
2018-09-20T06:31:05.044Z,8.43
2018-09-20T06:33:35.346Z,7.50
2018-09-20T06:36:07.818Z,7.13
2018-09-20T06:38:38.342Z,7.70
2018-09-20T06:41:10.266Z,6.70
2018-09-20T06:43:41.200Z,7.67
2018-09-20T06:46:11.908Z,7.27
2018-09-20T06:48:42.169Z,6.80
2018-09-20T06:51:12.968Z,6.87
2018-09-20T06:53:43.361Z,6.00
2018-09-20T06:56:14.151Z,6.77
2018-09-20T06:58:44.428Z,6.80
2018-09-20T07:01:14.819Z,5.97
2018-09-20T07:03:45.114Z,6.30
2018-09-20T07:06:15.654Z,6.00
2018-09-20T07:08:46.141Z,5.97
2018-09-20T07:11:16.731Z,8.93
2018-09-20T07:13:47.396Z,8.23
2018-09-20T07:16:18.260Z,7.20
2018-09-20T07:18:48.808Z,6.27
2018-09-20T07:21:19.093Z,8.33
2018-09-20T07:23:49.694Z,8.50
2018-09-20T07:26:19.976Z,8.00
2018-09-20T07:28:50.304Z,9.13
2018-09-20T07:31:21.255Z,9.63
2018-09-20T07:33:51.797Z,9.43
2018-09-20T07:36:22.069Z,14.37
2018-09-20T07:38:52.634Z,10.80
2018-09-20T07:41:23.416Z,9.30
2018-09-20T07:43:53.937Z,8.50
2018-09-20T07:46:24.236Z,9.97
2018-09-20T07:48:54.651Z,9.60
2018-09-20T07:51:25.173Z,9.93
2018-09-20T07:53:56.379Z,7.80
2018-09-20T07:56:26.639Z,8.67
2018-09-20T07:58:57.199Z,8.00
2018-09-20T08:01:28.299Z,9.00
2018-09-20T08:03:58.966Z,7.77
2018-09-20T08:06:29.309Z,8.40
2018-09-20T08:08:59.829Z,8.17
2018-09-20T08:11:30.607Z,8.27
2018-09-20T08:14:01.148Z,8.90
2018-09-20T08:16:32.307Z,7.83
2018-09-20T08:19:03.594Z,7.70
2018-09-20T08:21:34.170Z,7.83
2018-09-20T08:24:04.854Z,7.50
2018-09-20T08:26:35.386Z,7.10
2018-09-20T08:29:07.016Z,8.67
2018-09-20T08:31:37.516Z,7.20
2018-09-20T08:34:08.084Z,13.13
2018-09-20T08:36:38.984Z,8.53
2018-09-20T08:39:11.664Z,7.40
2018-09-20T08:41:43.224Z,7.87
2018-09-20T08:44:13.904Z,7.83
2018-09-20T08:46:44.200Z,8.23
2018-09-20T08:49:14.612Z,7.83
2018-09-20T08:51:45.244Z,7.80
2018-09-20T08:54:16.792Z,7.70
2018-09-20T08:56:47.655Z,8.33
2018-09-20T08:59:19.329Z,7.20
2018-09-20T09:01:49.820Z,6.87
2018-09-20T09:04:20.327Z,5.70
2018-09-20T09:06:50.927Z,7.30
2018-09-20T09:09:21.284Z,6.93
2018-09-20T09:11:52.637Z,7.10
2018-09-20T09:14:23.080Z,5.93
2018-09-20T09:16:53.383Z,7.70
2018-09-20T09:19:24.249Z,6.17
2018-09-20T09:21:54.474Z,6.93
2018-09-20T09:24:25.008Z,6.43
2018-09-20T09:26:55.580Z,5.83
2018-09-20T09:29:26.340Z,5.10
2018-09-20T09:31:56.592Z,5.67
2018-09-20T09:34:28.645Z,4.87
2018-09-20T09:36:59.483Z,5.80
2018-09-20T09:39:30.809Z,4.10
2018-09-20T09:42:01.479Z,4.80
2018-09-20T09:44:32.284Z,5.03
2018-09-20T09:47:03.604Z,3.67
2018-09-20T09:49:34.729Z,4.80
2018-09-20T09:52:05.387Z,4.67
2018-09-20T09:54:37.462Z,5.00
2018-09-20T09:57:08.488Z,4.08
2018-09-20T09:59:39.594Z,4.28
2018-09-20T10:02:10.904Z,4.37
2018-09-20T10:04:41.855Z,3.60
2018-09-20T10:07:12.682Z,4.28
2018-09-20T10:09:44.012Z,4.00
2018-09-20T10:12:15.084Z,4.25
2018-09-20T10:14:46.167Z,4.90
2018-09-20T10:17:17.233Z,4.72
2018-09-20T10:19:47.767Z,5.10
2018-09-20T10:22:20.419Z,5.70
2018-09-20T10:24:50.834Z,5.50
2018-09-20T10:27:21.091Z,5.50
2018-09-20T10:29:51.660Z,5.83
2018-09-20T10:32:22.335Z,4.97
2018-09-20T10:34:53.270Z,5.20
2018-09-20T10:37:23.552Z,3.80
2018-09-20T10:39:54.181Z,4.33
2018-09-20T10:42:24.415Z,4.60
2018-09-20T10:44:55.130Z,4.57
2018-09-20T10:47:25.825Z,3.50
2018-09-20T10:49:56.508Z,4.40
2018-09-20T10:52:27.298Z,5.70
2018-09-20T10:54:57.876Z,4.60
2018-09-20T10:57:28.461Z,5.03
2018-09-20T10:59:59.182Z,6.10
2018-09-20T11:02:29.933Z,5.60
2018-09-20T11:05:00.577Z,4.90
2018-09-20T11:08:01.108Z,5.27
2018-09-20T11:10:31.423Z,4.60
2018-09-20T11:13:01.990Z,5.77
2018-09-20T11:15:32.833Z,6.10
2018-09-20T11:18:03.136Z,5.10
2018-09-20T11:20:36.784Z,6.50
2018-09-20T11:23:07.296Z,4.43
2018-09-20T11:25:37.688Z,5.20
2018-09-20T11:28:08.021Z,5.50
2018-09-20T11:30:38.557Z,5.57
2018-09-20T11:33:10.520Z,5.60
2018-09-20T11:35:41.065Z,5.73
2018-09-20T11:38:11.909Z,6.70
2018-09-20T11:40:42.701Z,6.40
2018-09-20T11:43:15.197Z,6.20
2018-09-20T11:45:45.957Z,5.60
2018-09-20T11:48:16.646Z,5.70
2018-09-20T11:50:48.090Z,5.30
2018-09-20T11:53:18.806Z,5.67
2018-09-20T11:55:49.368Z,5.40
2018-09-20T11:58:19.904Z,5.87
2018-09-20T12:00:50.420Z,6.50
2018-09-20T12:03:20.944Z,5.70
2018-09-20T12:05:51.509Z,5.50
2018-09-20T12:08:21.963Z,6.10
2018-09-20T12:10:52.648Z,5.30
2018-09-20T12:13:23.653Z,5.53
2018-09-20T12:15:54.371Z,6.00
2018-09-20T12:18:25.064Z,5.20
2018-09-20T12:20:56.388Z,6.47
2018-09-20T12:23:26.915Z,5.43
2018-09-20T12:25:57.669Z,4.80
2018-09-20T12:28:28.566Z,8.90
2018-09-20T12:30:59.230Z,5.53
2018-09-20T12:33:29.755Z,5.70
2018-09-20T12:36:00.332Z,4.50
2018-09-20T12:38:30.768Z,5.33
2018-09-20T12:41:01.041Z,4.70
2018-09-20T12:43:31.507Z,4.77
2018-09-20T12:46:02.072Z,5.53
2018-09-20T12:48:32.904Z,5.20
2018-09-20T12:51:03.483Z,4.47
2018-09-20T12:53:34.032Z,6.10
2018-09-20T12:56:04.603Z,5.60
2018-09-20T12:58:38.290Z,5.40
2018-09-20T13:01:12.038Z,5.20
2018-09-20T13:03:43.416Z,5.20
2018-09-20T13:06:13.934Z,5.37
2018-09-20T13:08:44.514Z,5.10
2018-09-20T13:11:15.102Z,6.10
2018-09-20T13:13:45.644Z,6.77
2018-09-20T13:16:16.228Z,6.80
2018-09-20T13:18:46.495Z,6.40
2018-09-20T13:21:17.138Z,5.90
2018-09-20T13:23:47.646Z,6.23
2018-09-20T13:26:18.265Z,6.50
2018-09-20T13:28:48.511Z,6.00
2018-09-20T13:31:19.056Z,6.80
2018-09-20T13:33:49.604Z,6.43
2018-09-20T13:36:20.166Z,6.20
2018-09-20T13:38:50.580Z,5.80
2018-09-20T13:41:21.734Z,6.33
2018-09-20T13:43:51.983Z,6.53
2018-09-20T13:46:22.500Z,6.63
2018-09-20T13:48:53.004Z,7.50
2018-09-20T13:51:23.247Z,5.80
2018-09-20T13:53:54.595Z,6.43
2018-09-20T13:56:25.170Z,6.33
2018-09-20T13:58:55.740Z,6.10
2018-09-20T14:01:26.550Z,6.20
2018-09-20T14:03:57.053Z,7.00
2018-09-20T14:06:27.585Z,6.80
2018-09-20T14:08:58.063Z,7.00
2018-09-20T14:11:28.597Z,6.93
2018-09-20T14:13:58.833Z,5.23
2018-09-20T14:16:29.381Z,7.30
2018-09-20T14:19:00.039Z,7.00
2018-09-20T14:21:30.510Z,6.50
2018-09-20T14:24:00.992Z,7.50
2018-09-20T14:26:31.547Z,7.17
2018-09-20T14:29:02.351Z,7.70
2018-09-20T14:31:32.619Z,8.13
2018-09-20T14:34:02.849Z,8.50
2018-09-20T14:36:33.078Z,8.43
2018-09-20T14:39:05.043Z,9.30
2018-09-20T14:41:35.567Z,7.13
2018-09-20T14:44:06.722Z,7.70
2018-09-20T14:46:37.307Z,7.83
2018-09-20T14:49:08.392Z,8.33
2018-09-20T14:51:38.855Z,6.93
2018-09-20T14:54:09.528Z,7.50
2018-09-20T14:56:40.546Z,8.20
2018-09-20T14:59:12.872Z,7.27
2018-09-20T15:01:43.242Z,8.20
2018-09-20T15:04:14.619Z,8.87
2018-09-20T15:06:44.897Z,7.90
2018-09-20T15:09:15.421Z,9.27
2018-09-20T15:11:45.936Z,7.17
2018-09-20T15:14:16.166Z,8.93
2018-09-20T15:16:46.836Z,8.47
2018-09-20T15:19:17.574Z,8.87
2018-09-20T15:21:48.396Z,7.90
2018-09-20T15:24:18.978Z,6.90
2018-09-20T15:26:49.505Z,8.70
2018-09-20T15:29:19.988Z,7.40
2018-09-20T15:31:50.661Z,7.97
2018-09-20T15:34:21.764Z,9.03
2018-09-20T15:36:52.328Z,6.90
2018-09-20T15:39:22.857Z,7.80
2018-09-20T15:41:53.552Z,8.37
2018-09-20T15:44:24.491Z,8.10
2018-09-20T15:46:55.246Z,7.80
2018-09-20T15:49:26.199Z,7.87
2018-09-20T15:51:56.909Z,8.07
2018-09-20T15:54:27.465Z,13.07
2018-09-20T15:56:57.996Z,9.47
2018-09-20T15:59:28.568Z,8.40
2018-09-20T16:01:59.100Z,9.70
2018-09-20T16:04:29.321Z,7.80
2018-09-20T16:06:59.804Z,7.47
2018-09-20T16:09:30.044Z,8.50
2018-09-20T16:12:00.305Z,8.67
2018-09-20T16:14:31.081Z,8.60
2018-09-20T16:17:02.247Z,9.30
2018-09-20T16:19:32.749Z,8.50
2018-09-20T16:22:03.281Z,8.53
2018-09-20T16:24:33.816Z,8.80
2018-09-20T16:27:04.071Z,8.40
2018-09-20T16:30:18.145Z,8.03
2018-09-20T16:35:10.622Z,9.63
2018-09-20T16:37:57.671Z,8.00
2018-09-20T16:40:37.620Z,8.57
2018-09-20T16:43:08.160Z,8.90
2018-09-20T16:45:39.217Z,11.60
2018-09-20T16:48:09.523Z,10.87
2018-09-20T16:50:40.060Z,9.37
2018-09-20T16:53:10.866Z,9.33
2018-09-20T16:55:41.492Z,9.13
2018-09-20T16:58:12.081Z,9.03
2018-09-20T17:00:42.654Z,9.57
2018-09-20T17:03:13.208Z,8.60
2018-09-20T17:05:44.016Z,8.33
2018-09-20T17:08:14.573Z,9.20
2018-09-20T17:10:45.518Z,9.23
2018-09-20T17:13:16.844Z,9.17
2018-09-20T17:15:47.928Z,10.23
2018-09-20T17:18:18.371Z,9.10
2018-09-20T17:20:48.972Z,8.40
2018-09-20T17:23:20.503Z,8.37
2018-09-20T17:25:50.744Z,8.50
2018-09-20T17:28:21.421Z,8.50
2018-09-20T17:30:52.094Z,9.13
2018-09-20T17:33:22.340Z,8.13
2018-09-20T17:35:54.029Z,9.10
2018-09-20T17:38:26.108Z,9.60
2018-09-20T17:41:04.632Z,8.73
2018-09-20T17:43:41.696Z,8.83
2018-09-20T17:46:12.198Z,9.53
2018-09-20T17:48:42.813Z,9.47
2018-09-20T17:51:14.350Z,8.80
2018-09-20T17:53:46.692Z,9.73
2018-09-20T17:56:18.304Z,9.40
2018-09-20T17:58:50.376Z,8.73
2018-09-20T18:01:21.221Z,9.20
2018-09-20T18:03:51.808Z,9.30
2018-09-20T18:06:22.113Z,9.33
2018-09-20T18:08:52.725Z,10.43
2018-09-20T18:11:23.259Z,10.40
2018-09-20T18:14:08.596Z,10.47
2018-09-20T18:16:39.105Z,10.63
2018-09-20T18:19:09.990Z,10.40
2018-09-20T18:21:40.795Z,9.90
2018-09-20T18:24:11.728Z,9.40
2018-09-20T18:26:43.190Z,10.73
2018-09-20T18:29:13.952Z,10.67
2018-09-20T18:31:44.506Z,9.83
2018-09-20T18:34:15.893Z,9.80
2018-09-20T18:36:46.281Z,10.10
2018-09-20T18:39:18.207Z,10.63
2018-09-20T18:41:49.135Z,9.50
2018-09-20T18:44:19.342Z,9.57
2018-09-20T18:46:49.861Z,10.30
2018-09-20T18:49:20.532Z,8.43
2018-09-20T18:51:50.999Z,9.67
2018-09-20T18:54:21.793Z,9.07
2018-09-20T18:56:52.089Z,10.30
2018-09-20T18:59:22.664Z,9.30
2018-09-20T19:01:53.164Z,7.63
2018-09-20T19:04:23.911Z,8.93
2018-09-20T19:06:54.657Z,9.40
2018-09-20T19:09:25.221Z,10.27
2018-09-20T19:11:55.737Z,9.10
2018-09-20T19:14:26.754Z,9.80
2018-09-20T19:16:57.721Z,9.40
2018-09-20T19:19:28.306Z,10.13
2018-09-20T19:21:58.913Z,9.50
2018-09-20T19:24:29.291Z,11.53
2018-09-20T19:26:59.943Z,9.93
2018-09-20T19:29:31.165Z,13.20
2018-09-20T19:32:01.828Z,13.43
2018-09-20T19:34:32.271Z,12.20
2018-09-20T19:37:02.813Z,12.63
2018-09-20T19:39:33.556Z,10.90
2018-09-20T19:42:04.078Z,10.63
2018-09-20T19:44:35.333Z,12.00
2018-09-20T19:47:06.353Z,10.00
2018-09-20T19:49:36.880Z,11.00
2018-09-20T19:52:07.860Z,11.23
2018-09-20T19:54:38.750Z,10.90
2018-09-20T19:57:09.331Z,11.30
2018-09-20T19:59:40.632Z,11.15
2018-09-20T20:02:16.520Z,11.48
2018-09-20T20:04:46.848Z,12.23
2018-09-20T20:07:17.170Z,11.37
2018-09-20T20:09:47.744Z,11.70
2018-09-20T20:12:18.502Z,12.60
2018-09-20T20:14:49.060Z,12.73
2018-09-20T20:17:19.584Z,12.10
2018-09-20T20:19:50.370Z,12.37
2018-09-20T20:22:21.138Z,10.97
2018-09-20T20:24:52.425Z,12.13
2018-09-20T20:27:26.983Z,17.70
2018-09-20T20:29:57.516Z,14.70
2018-09-20T20:32:28.053Z,16.90
2018-09-20T20:34:58.906Z,14.10
2018-09-20T20:37:29.544Z,13.63
2018-09-20T20:40:00.894Z,13.60
2018-09-20T20:42:31.708Z,13.60
2018-09-20T20:45:05.820Z,13.67
2018-09-20T20:47:36.504Z,12.80
2018-09-20T20:50:08.020Z,13.10
2018-09-20T20:52:38.268Z,12.20
2018-09-20T20:55:10.376Z,12.27
2018-09-20T20:57:41.211Z,12.90
2018-09-20T21:00:12.113Z,10.80
2018-09-20T21:02:42.688Z,12.93
2018-09-20T21:05:13.201Z,12.80
2018-09-20T21:07:43.576Z,12.50
2018-09-20T21:10:16.976Z,12.40
2018-09-20T21:12:47.565Z,12.13
2018-09-20T21:15:18.101Z,11.07
2018-09-20T21:17:48.633Z,11.27
2018-09-20T21:20:19.513Z,11.33
2018-09-20T21:22:49.732Z,12.40
2018-09-20T21:25:20.437Z,12.13
2018-09-20T21:27:50.989Z,12.00
2018-09-20T21:30:21.870Z,12.30
2018-09-20T21:32:53.049Z,11.87
2018-09-20T21:35:24.456Z,11.00
2018-09-20T21:37:55.008Z,11.50
2018-09-20T21:40:26.150Z,11.00
2018-09-20T21:42:57.217Z,11.70
2018-09-20T21:45:27.864Z,12.73
2018-09-20T21:47:58.442Z,11.53
2018-09-20T21:50:28.733Z,12.43
2018-09-20T21:52:59.722Z,16.63
2018-09-20T21:55:30.093Z,16.27
2018-09-20T21:58:00.813Z,13.57
2018-09-20T22:00:31.149Z,14.07
2018-09-20T22:03:02.668Z,13.70
2018-09-20T22:05:34.709Z,13.30
2018-09-20T22:08:05.056Z,13.80
2018-09-20T22:10:35.855Z,14.47
2018-09-20T22:13:09.627Z,12.70
2018-09-20T22:15:40.148Z,13.17
2018-09-20T22:18:10.454Z,12.73
2018-09-20T22:20:41.536Z,14.30
2018-09-20T22:23:12.151Z,13.60
2018-09-20T22:25:42.430Z,13.00
2018-09-20T22:28:12.967Z,12.37
2018-09-20T22:30:43.392Z,13.80
2018-09-20T22:33:13.656Z,13.40
2018-09-20T22:35:44.649Z,13.23
2018-09-20T22:38:15.524Z,12.33
2018-09-20T22:40:45.789Z,12.53
2018-09-20T22:43:16.630Z,12.77
2018-09-20T22:45:47.373Z,12.13
2018-09-20T22:48:18.136Z,12.57
2018-09-20T22:50:48.650Z,12.20
2018-09-20T22:53:19.175Z,13.33
2018-09-20T22:55:49.735Z,13.00
2018-09-20T22:58:20.345Z,14.17
2018-09-20T23:00:51.080Z,14.27
2018-09-20T23:03:21.928Z,13.93
2018-09-20T23:05:52.492Z,14.13
2018-09-20T23:08:23.146Z,14.17
2018-09-20T23:10:55.429Z,14.93
2018-09-20T23:13:26.192Z,14.30
2018-09-20T23:15:56.734Z,15.50
2018-09-20T23:18:27.703Z,16.57
2018-09-20T23:20:58.204Z,14.80
2018-09-20T23:23:28.733Z,13.50
2018-09-20T23:25:59.344Z,14.10
2018-09-20T23:28:29.692Z,15.50
2018-09-20T23:31:00.195Z,13.47
2018-09-20T23:33:30.687Z,14.80
2018-09-20T23:36:01.296Z,19.57
2018-09-20T23:38:32.431Z,15.37
2018-09-20T23:41:03.120Z,15.40
2018-09-20T23:43:33.691Z,15.00
2018-09-20T23:46:04.265Z,15.20
2018-09-20T23:48:34.557Z,14.63
2018-09-20T23:51:05.376Z,13.73
2018-09-20T23:53:35.892Z,14.60
2018-09-20T23:56:06.219Z,14.87
2018-09-20T23:58:36.947Z,14.70
